Time;durP1;ratioP1;P1;durP2;ratioP2;P2;SDS_P1;SDS_P2;PMS_P1;PMS_P2;Temp;Humidity;BMP_temperature;BMP_pressure;BME280_temperature;BME280_humidity;BME280_pressure;Samples;Min_cycle;Max_cycle;Signal;HPM_P1;HPM_P2
2023/05/15 00:00:59;;;;;;;9.43;8.63;;;12.30;99.90;;;-141.84;77.57;20088.22;5055136;28;20197;-54
2023/05/15 00:03:28;;;;;;;9.27;8.33;;;12.20;99.90;;;-141.84;77.33;20076.03;5055565;28;20219;-55
2023/05/15 00:05:56;;;;;;;9.30;8.40;;;12.30;99.90;;;-141.84;77.82;20061.78;5054781;28;20206;-57
2023/05/15 00:08:24;;;;;;;8.70;7.90;;;12.30;99.90;;;-141.84;77.89;20059.75;5040875;28;20210;-56
2023/05/15 00:10:54;;;;;;;10.63;8.47;;;12.20;99.90;;;-141.84;77.69;20061.78;5035244;28;20210;-56
2023/05/15 00:13:29;;;;;;;9.37;8.47;;;12.20;99.90;;;-141.84;77.85;20055.69;5035180;28;20237;-55
2023/05/15 00:15:57;;;;;;;9.13;8.23;;;12.20;99.90;;;-141.84;78.27;20055.69;5046518;28;20284;-53
2023/05/15 00:18:26;;;;;;;9.87;8.97;;;12.20;99.90;;;-141.84;78.70;20037.41;5055246;28;20229;-55
2023/05/15 00:20:54;;;;;;;9.10;8.30;;;12.10;99.90;;;-141.84;78.36;20057.72;5054807;28;20213;-54
2023/05/15 00:23:22;;;;;;;9.30;8.40;;;12.20;99.90;;;-141.84;77.88;20069.94;5055147;28;20240;-55
2023/05/15 00:25:51;;;;;;;9.50;8.60;;;12.20;99.90;;;-141.84;78.04;20049.59;5055071;28;20232;-54
2023/05/15 00:28:20;;;;;;;9.57;8.67;;;12.20;99.90;;;-141.84;77.94;20061.78;5054634;28;20563;-56
2023/05/15 00:30:48;;;;;;;8.77;7.97;;;12.10;99.90;;;-141.84;78.43;20039.44;5054995;28;20212;-53
2023/05/15 00:33:16;;;;;;;9.23;8.33;;;12.00;99.90;;;-141.84;79.26;20002.84;5054849;28;20201;-53
2023/05/15 00:35:45;;;;;;;9.30;8.40;;;12.00;99.90;;;-141.84;79.57;19978.47;5054784;28;20213;-55
2023/05/15 00:38:13;;;;;;;8.80;8.00;;;11.90;99.90;;;-141.84;78.47;20039.44;5042136;28;20210;-52
2023/05/15 00:40:43;;;;;;;8.50;7.77;;;12.00;99.90;;;-141.84;78.92;19980.50;5034768;28;20202;-54
2023/05/15 00:43:12;;;;;;;9.33;8.43;;;11.90;99.90;;;-141.84;79.59;19994.72;5034895;28;20196;-53
2023/05/15 00:45:43;;;;;;;9.57;8.57;;;11.90;99.90;;;-141.84;78.68;20019.13;5044303;28;20204;-57
2023/05/15 00:48:12;;;;;;;9.70;8.80;;;11.90;99.90;;;-141.84;78.63;20013.00;5054431;28;20237;-57
2023/05/15 00:50:42;;;;;;;9.30;8.40;;;11.90;99.90;;;-141.84;78.95;19996.75;5049409;28;20193;-56
2023/05/15 00:53:11;;;;;;;9.47;8.57;;;11.90;99.90;;;-141.84;79.27;19994.72;5054453;28;20208;-53
2023/05/15 00:55:42;;;;;;;9.70;8.70;;;11.90;99.90;;;-141.84;78.99;20017.09;5054497;28;20208;-54
2023/05/15 00:58:11;;;;;;;9.53;8.63;;;11.90;99.90;;;-141.84;78.25;20029.28;5054241;28;20193;-53
2023/05/15 01:00:40;;;;;;;9.67;8.63;;;11.90;99.90;;;-141.84;77.99;20039.44;5050784;28;20202;-56
2023/05/15 01:03:09;;;;;;;9.93;8.97;;;12.00;99.90;;;-141.84;77.90;20047.56;5034258;28;20260;-54
2023/05/15 01:05:37;;;;;;;10.07;9.07;;;12.00;99.90;;;-141.84;77.95;20047.56;5066111;28;20605;-54
2023/05/15 01:08:21;;;;;;;9.60;8.43;;;12.00;99.90;;;-141.84;77.85;20019.13;5062051;28;20209;-53
2023/05/15 01:10:51;;;;;;;10.30;8.90;;;12.10;99.90;;;-141.84;77.48;19998.78;5054231;28;20284;-53
2023/05/15 01:13:22;;;;;;;9.30;8.50;;;12.10;99.90;;;-141.84;77.16;20045.53;5054501;28;20216;-53
2023/05/15 01:15:51;;;;;;;11.57;8.67;;;12.10;99.90;;;-141.84;77.92;20029.28;5053890;28;20190;-54
2023/05/15 01:18:20;;;;;;;9.93;8.93;;;12.10;99.90;;;-141.84;77.74;20041.47;5053794;28;20225;-54
2023/05/15 01:21:20;;;;;;;10.43;9.43;;;12.00;99.90;;;-141.84;77.28;20039.44;5052819;28;20267;-52
2023/05/15 01:24:11;;;;;;;10.13;9.13;;;12.10;99.90;;;-141.84;77.48;20013.00;5053121;28;20189;-55
2023/05/15 01:27:15;;;;;;;9.93;8.73;;;12.10;99.90;;;-141.84;77.90;20027.25;5052757;28;20642;-52
2023/05/15 01:30:00;;;;;;;10.20;9.30;;;12.00;99.90;;;-141.84;77.95;20041.47;5053124;28;20196;-55
2023/05/15 01:32:38;;;;;;;10.80;9.70;;;12.00;99.90;;;-141.84;78.21;20019.13;5052757;28;20194;-56
2023/05/15 01:35:16;;;;;;;10.50;9.50;;;12.00;99.90;;;-141.84;78.38;20031.31;5052869;28;20324;-56
2023/05/15 01:37:50;;;;;;;10.33;9.33;;;12.00;99.90;;;-141.84;78.30;20019.13;5043878;28;20210;-56
2023/05/15 01:40:25;;;;;;;10.43;9.33;;;12.00;99.90;;;-141.84;78.53;20021.16;5031871;28;20199;-55
2023/05/15 01:43:03;;;;;;;10.47;9.47;;;12.00;99.90;;;-141.84;78.48;19996.75;5050995;28;20196;-56
2023/05/15 01:45:34;;;;;;;10.93;9.83;;;11.90;99.90;;;-141.84;78.75;19988.63;5052773;28;20193;-55
2023/05/15 01:48:08;;;;;;;10.40;9.13;;;11.90;99.90;;;-141.84;78.81;19994.72;5052292;28;20226;-55
2023/05/15 01:50:40;;;;;;;9.90;9.00;;;11.90;99.90;;;-141.84;79.08;20000.81;5033354;28;20198;-55
2023/05/15 01:53:11;;;;;;;10.57;9.50;;;11.80;99.90;;;-141.84;79.29;19960.16;5050561;28;20650;-55
2023/05/15 01:55:40;;;;;;;10.13;9.13;;;11.80;99.90;;;-141.84;79.63;19974.41;5052483;28;20232;-56
2023/05/15 01:58:11;;;;;;;10.83;9.70;;;11.70;99.90;;;-141.84;79.16;19976.44;5052122;28;20205;-55
2023/05/15 02:00:41;;;;;;;11.10;10.00;;;11.70;99.90;;;-141.84;79.28;19968.31;5052593;28;20660;-54
2023/05/15 02:03:10;;;;;;;11.03;9.93;;;11.70;99.90;;;-141.84;79.10;20010.97;5052386;28;20239;-54
2023/05/15 02:05:39;;;;;;;10.57;9.53;;;11.70;99.90;;;-141.84;78.72;19992.69;5052366;28;20201;-54
2023/05/15 02:08:08;;;;;;;11.30;10.20;;;11.70;99.90;;;-141.84;78.74;20049.59;5040163;28;20210;-54
2023/05/15 02:10:36;;;;;;;12.10;10.90;;;11.70;99.90;;;-141.84;79.14;19978.47;5032446;28;20256;-54
2023/05/15 02:13:07;;;;;;;12.77;11.03;;;11.70;99.90;;;-141.84;79.65;19980.50;5031947;28;20677;-51
2023/05/15 02:15:38;;;;;;;11.53;10.43;;;11.60;99.90;;;-141.84;79.94;19947.97;5040332;28;20201;-53
2023/05/15 02:18:06;;;;;;;12.77;11.57;;;11.60;99.90;;;-141.84;80.16;19947.97;5052066;28;20188;-54
2023/05/15 02:20:34;;;;;;;12.60;11.30;;;11.60;99.90;;;-141.84;81.06;19917.50;5052099;28;20292;-53
2023/05/15 02:23:02;;;;;;;13.87;11.83;;;11.50;99.90;;;-141.84;80.95;19919.53;5051786;28;20205;-55
2023/05/15 02:25:46;;;;;;;12.93;11.70;;;11.60;99.90;;;-141.84;81.29;19925.63;5051841;28;20614;-53
2023/05/15 02:28:28;;;;;;;12.40;11.17;;;11.50;99.90;;;-141.84;81.24;19939.84;5051995;28;20190;-53
2023/05/15 02:31:08;;;;;;;12.17;10.97;;;11.50;99.90;;;-141.84;80.53;19958.13;5052122;28;20586;-52
2023/05/15 02:33:52;;;;;;;12.90;11.53;;;11.50;99.90;;;-141.84;80.16;19958.13;5051927;28;20186;-54
2023/05/15 02:36:27;;;;;;;13.23;11.93;;;11.50;99.90;;;-141.84;80.48;19931.72;5031829;28;20213;-56
2023/05/15 02:38:58;;;;;;;14.50;12.27;;;11.50;99.90;;;-141.84;80.35;19962.19;5050283;28;20194;-52
2023/05/15 02:41:28;;;;;;;13.53;12.23;;;11.60;99.90;;;-141.84;80.62;19943.91;5042645;28;20456;-53
2023/05/15 02:43:59;;;;;;;13.20;11.77;;;11.50;99.90;;;-141.84;80.07;19968.31;5051681;28;20206;-53
2023/05/15 02:46:30;;;;;;;14.30;12.20;;;11.50;99.90;;;-141.84;79.98;20002.84;5051654;28;20524;-54
2023/05/15 02:48:59;;;;;;;13.10;11.80;;;11.50;99.90;;;-141.84;80.46;19935.78;5045522;28;20625;-52
2023/05/15 02:51:27;;;;;;;14.23;12.80;;;11.50;99.90;;;-141.84;80.52;19939.84;5035863;28;20280;-54
2023/05/15 02:53:58;;;;;;;13.47;11.93;;;11.50;99.90;;;-141.84;80.21;19935.78;5051471;28;20561;-73
2023/05/15 02:56:26;;;;;;;14.23;11.90;;;11.40;99.90;;;-141.84;79.70;19929.69;5051718;28;20209;-72
2023/05/15 02:58:54;;;;;;;13.47;12.17;;;11.50;99.90;;;-141.84;79.54;19927.66;5051644;28;20205;-74
2023/05/15 03:01:22;;;;;;;13.43;12.13;;;11.50;99.90;;;-141.84;79.65;19943.91;5051580;28;20199;-73
2023/05/15 03:03:52;;;;;;;13.47;12.17;;;11.50;99.90;;;-141.84;79.32;19937.81;5050425;28;20205;-73
2023/05/15 03:06:20;;;;;;;13.63;12.20;;;11.60;99.90;;;-141.84;79.49;19925.63;5042528;28;20293;-73
2023/05/15 03:08:48;;;;;;;13.53;12.17;;;11.50;99.90;;;-141.84;78.66;19956.09;5031318;28;20213;-73
2023/05/15 03:11:18;;;;;;;13.50;12.10;;;11.50;99.90;;;-141.84;79.15;19947.97;5031588;28;20209;-72
2023/05/15 03:13:46;;;;;;;13.60;12.30;;;11.50;99.90;;;-141.84;79.17;19941.88;5031815;28;20293;-73
2023/05/15 03:16:14;;;;;;;13.70;12.40;;;11.50;99.90;;;-141.84;79.72;19899.19;5044720;28;20228;-73
2023/05/15 03:18:42;;;;;;;13.07;11.77;;;11.50;99.90;;;-141.84;80.05;19919.53;5051367;28;20205;-72
2023/05/15 03:21:12;;;;;;;14.03;12.50;;;11.40;99.90;;;-141.84;79.80;19919.53;5051760;28;20202;-73
2023/05/15 03:23:40;;;;;;;13.23;11.83;;;11.40;99.90;;;-141.84;79.49;19929.69;5051467;28;20189;-74
2023/05/15 03:26:08;;;;;;;14.13;12.27;;;11.50;99.90;;;-141.84;79.51;19927.66;5051423;28;20247;-73
2023/05/15 03:28:37;;;;;;;13.47;12.17;;;11.50;99.90;;;-141.84;79.90;19937.81;5051016;28;20201;-73
2023/05/15 03:31:07;;;;;;;14.30;12.90;;;11.50;99.90;;;-141.84;79.87;19911.41;5051252;28;20205;-73
2023/05/15 03:33:35;;;;;;;11.80;10.67;;;11.40;99.90;;;-141.84;80.09;19921.56;5048185;28;20198;-72
2023/05/15 03:36:04;;;;;;;13.23;11.83;;;11.50;99.90;;;-141.84;80.11;19901.22;5050609;28;20225;-74
2023/05/15 03:38:33;;;;;;;15.33;12.50;;;11.40;99.90;;;-141.84;79.38;19937.81;5051202;28;20225;-74
2023/05/15 03:41:01;;;;;;;12.93;11.63;;;11.40;99.90;;;-141.84;79.35;19931.72;5045498;28;20206;-74
2023/05/15 03:43:29;;;;;;;12.90;11.27;;;11.50;99.90;;;-141.84;79.39;19952.03;5031555;28;20202;-73
2023/05/15 03:45:59;;;;;;;13.43;12.13;;;11.50;99.90;;;-141.84;79.03;19927.66;5031629;28;20202;-73
2023/05/15 03:48:27;;;;;;;13.80;12.40;;;11.60;99.90;;;-141.84;79.41;19943.91;5032599;28;20583;-75
2023/05/15 03:50:56;;;;;;;13.87;12.33;;;11.60;99.90;;;-141.84;79.46;19980.50;5050704;28;20429;-72
2023/05/15 03:53:24;;;;;;;13.40;12.03;;;11.60;99.90;;;-141.84;79.50;19935.78;5051496;28;20213;-53
2023/05/15 03:55:54;;;;;;;13.30;12.00;;;11.60;99.90;;;-141.84;78.41;19931.72;5050934;28;20225;-54
2023/05/15 03:58:22;;;;;;;14.40;11.20;;;11.60;99.90;;;-141.84;77.56;19956.09;5050811;28;20725;-53
2023/05/15 04:00:50;;;;;;;13.53;12.23;;;11.60;99.90;;;-141.84;78.31;19943.91;5050905;28;20209;-54
2023/05/15 04:03:18;;;;;;;13.23;11.83;;;11.70;99.90;;;-141.84;77.56;19952.03;5050953;28;20565;-53
2023/05/15 04:05:48;;;;;;;13.40;12.00;;;11.60;99.90;;;-141.84;77.04;19982.53;5036802;28;20666;-52
2023/05/15 04:08:17;;;;;;;13.13;11.80;;;11.60;99.90;;;-141.84;76.81;19970.34;5034648;28;20681;-52
2023/05/15 04:10:45;;;;;;;13.13;11.87;;;11.70;99.90;;;-141.84;77.00;20027.25;5034529;28;20579;-54
2023/05/15 04:13:14;;;;;;;12.63;11.43;;;11.70;99.90;;;-141.84;77.04;19972.38;5034578;28;20213;-55
2023/05/15 04:15:43;;;;;;;12.80;11.60;;;11.80;99.90;;;-141.84;75.96;20002.84;5043468;28;20213;-52
2023/05/15 04:18:11;;;;;;;13.57;12.17;;;11.90;99.90;;;-141.84;76.17;19986.59;5054034;28;20231;-55
2023/05/15 04:20:39;;;;;;;14.40;11.50;;;11.90;99.90;;;-141.84;75.89;19994.72;5054158;28;20547;-51
2023/05/15 04:23:07;;;;;;;13.03;11.83;;;11.90;99.90;;;-141.84;75.65;20017.09;5054311;28;20205;-55
2023/05/15 04:25:36;;;;;;;13.33;11.93;;;11.90;99.90;;;-141.84;75.92;20027.25;5054122;28;20199;-54
2023/05/15 04:28:05;;;;;;;12.80;11.50;;;11.90;99.90;;;-141.84;75.60;20010.97;5054302;28;20208;-52
2023/05/15 04:30:34;;;;;;;13.33;11.93;;;12.00;99.90;;;-141.84;76.17;19996.75;5054010;28;20206;-51
2023/05/15 04:33:03;;;;;;;12.20;11.00;;;12.00;99.90;;;-141.84;76.36;20004.88;5053933;28;20206;-55
2023/05/15 04:35:31;;;;;;;12.43;11.23;;;12.10;99.90;;;-141.84;76.40;20051.63;5053529;28;20221;-54
2023/05/15 04:37:59;;;;;;;12.93;11.63;;;12.10;99.90;;;-141.84;74.59;20063.81;5054148;28;20571;-55
2023/05/15 04:40:27;;;;;;;12.53;11.23;;;12.30;99.90;;;-141.84;73.66;20065.84;5052067;28;20201;-54
2023/05/15 04:42:56;;;;;;;12.43;11.23;;;12.50;99.90;;;-141.84;73.15;20141.06;5034007;28;20202;-52
2023/05/15 04:45:24;;;;;;;12.47;11.07;;;12.40;99.90;;;-141.84;74.24;20043.50;5034796;28;20629;-57
2023/05/15 04:47:54;;;;;;;11.67;10.57;;;12.40;99.90;;;-141.84;74.50;20043.50;5053168;28;20233;-52
2023/05/15 04:50:22;;;;;;;11.87;10.47;;;12.40;99.90;;;-141.84;74.31;20114.63;5035999;28;20194;-52
2023/05/15 04:52:51;;;;;;;12.80;11.07;;;12.50;99.90;;;-141.84;74.27;20080.09;5049548;28;20288;-54
2023/05/15 04:55:20;;;;;;;12.07;10.97;;;12.60;99.90;;;-141.84;73.29;20084.16;5053357;28;20205;-54
2023/05/15 04:57:48;;;;;;;11.77;10.57;;;12.50;99.90;;;-141.84;72.38;20120.75;5053362;28;20665;-56
2023/05/15 05:00:16;;;;;;;12.07;10.87;;;12.60;99.90;;;-141.84;71.18;20175.63;5053456;28;20201;-54
2023/05/15 05:02:45;;;;;;;11.83;10.70;;;12.70;99.90;;;-141.84;71.00;20175.63;5053404;28;20251;-53
2023/05/15 05:05:15;;;;;;;11.97;10.80;;;12.70;99.90;;;-141.84;71.31;20151.22;5040670;28;20210;-52
2023/05/15 05:07:45;;;;;;;11.37;10.37;;;12.70;99.90;;;-141.84;70.57;20143.09;5033808;28;20229;-54
2023/05/15 05:10:13;;;;;;;12.93;11.63;;;12.70;99.90;;;-141.84;71.11;20175.63;5033882;28;20213;-52
2023/05/15 05:12:41;;;;;;;12.73;11.20;;;12.70;99.90;;;-141.84;71.74;20143.09;5033506;28;20210;-55
2023/05/15 05:15:10;;;;;;;13.00;10.83;;;12.80;99.90;;;-141.84;72.00;20145.13;5037426;28;20217;-54
2023/05/15 05:17:39;;;;;;;10.83;9.83;;;12.90;99.90;;;-141.84;71.94;20177.66;5052927;28;20677;-56
2023/05/15 05:20:09;;;;;;;9.90;9.00;;;13.10;99.90;;;-141.84;70.97;20191.88;5052929;28;20622;-54
2023/05/15 05:22:41;;;;;;;11.40;10.30;;;13.20;99.90;;;-141.84;68.94;20228.47;5052951;28;20557;-58
2023/05/15 05:25:10;;;;;;;11.83;10.73;;;13.30;99.90;;;-141.84;68.22;20246.75;5053016;28;20202;-56
2023/05/15 05:27:38;;;;;;;12.00;10.90;;;13.30;99.90;;;-141.84;68.44;20279.28;5037099;28;20308;-52
2023/05/15 05:30:08;;;;;;;12.77;11.17;;;13.50;99.90;;;-141.84;67.48;20279.28;5032699;28;20216;-55
2023/05/15 05:32:36;;;;;;;11.77;10.68;;;13.50;99.90;;;-141.84;67.04;20334.16;5032835;28;20206;-53
2023/05/15 05:35:05;;;;;;;11.77;10.33;;;13.50;99.90;;;-141.84;67.64;20291.47;5043809;28;20209;-57
2023/05/15 05:37:34;;;;;;;11.40;10.20;;;13.60;99.90;;;-141.84;67.52;20313.84;5052858;28;20271;-50
2023/05/15 05:40:05;;;;;;;11.25;10.25;;;13.70;99.90;;;-141.84;65.46;20346.34;5052918;28;20206;-55
2023/05/15 05:42:33;;;;;;;13.80;11.40;;;13.70;99.90;;;-141.84;65.98;20307.72;5042063;28;20209;-54
2023/05/15 05:45:01;;;;;;;12.67;11.23;;;13.70;99.90;;;-141.84;65.33;20328.06;5052764;28;20248;-54
2023/05/15 05:47:29;;;;;;;12.10;10.90;;;13.70;99.90;;;-141.84;65.90;20326.03;5052134;28;20193;-55
2023/05/15 05:49:58;;;;;;;12.17;10.47;;;13.70;99.90;;;-141.84;65.67;20334.16;5038065;28;20262;-54
2023/05/15 05:52:27;;;;;;;11.83;10.63;;;13.80;99.90;;;-141.84;65.37;20409.38;5044810;28;20577;-55
2023/05/15 05:54:56;;;;;;;11.88;10.55;;;13.80;99.90;;;-141.84;64.88;20376.84;5052545;28;20205;-55
2023/05/15 05:57:25;;;;;;;11.90;10.70;;;13.80;99.90;;;-141.84;65.28;20387.00;5052296;28;20225;-55
2023/05/15 05:59:53;;;;;;;11.68;10.50;;;14.00;99.90;;;-141.84;64.15;20399.19;5052410;28;20204;-56
2023/05/15 06:02:22;;;;;;;11.63;10.43;;;14.00;99.90;;;-141.84;63.38;20429.69;5052103;28;20209;-54
2023/05/15 06:04:50;;;;;;;11.13;10.10;;;14.10;99.90;;;-141.84;63.48;20452.06;5042896;28;20209;-53
2023/05/15 06:07:18;;;;;;;12.35;10.00;;;14.20;99.90;;;-141.84;64.08;20376.84;5032213;28;20210;-55
2023/05/15 06:09:47;;;;;;;12.52;10.95;;;14.20;99.90;;;-141.84;63.95;20407.34;5032529;28;20355;-55
2023/05/15 06:12:15;;;;;;;11.07;10.07;;;14.20;99.90;;;-141.84;64.62;20415.47;5032321;28;20206;-54
2023/05/15 06:14:45;;;;;;;11.68;9.70;;;14.20;99.90;;;-141.84;64.83;20431.72;5033088;28;20674;-55
2023/05/15 06:17:14;;;;;;;10.88;9.75;;;14.40;99.90;;;-141.84;64.58;20450.03;5051854;28;20233;-54
2023/05/15 06:19:42;;;;;;;12.07;10.98;;;14.50;99.90;;;-141.84;62.70;20496.78;5051801;28;20239;-55
2023/05/15 06:22:10;;;;;;;11.70;10.50;;;14.60;99.90;;;-141.84;62.60;20539.47;5050212;28;20208;-54
2023/05/15 06:24:38;;;;;;;11.82;10.68;;;14.70;99.90;;;-141.84;62.42;20541.50;5032123;28;20206;-53
2023/05/15 06:27:06;;;;;;;11.90;10.75;;;14.70;99.90;;;-141.84;62.01;20545.56;5031071;28;20573;-54
2023/05/15 06:29:35;;;;;;;12.27;10.93;;;14.80;99.90;;;-141.84;62.21;20545.56;5032103;28;20571;-53
2023/05/15 06:32:06;;;;;;;12.52;11.20;;;14.80;99.90;;;-141.84;62.43;20574.00;5041488;28;20201;-54
2023/05/15 06:34:34;;;;;;;11.82;10.63;;;14.90;99.90;;;-141.84;63.11;20529.28;5051823;28;20205;-53
2023/05/15 06:37:02;;;;;;;10.98;9.88;;;15.00;99.90;;;-141.84;61.66;20563.84;5051651;28;20228;-54
2023/05/15 06:39:30;;;;;;;11.73;10.57;;;15.10;99.90;;;-141.84;61.07;20628.91;5051577;28;20210;-56
2023/05/15 06:42:00;;;;;;;11.30;10.13;;;15.20;99.90;;;-141.84;61.55;20598.41;5037370;28;20212;-55
2023/05/15 06:44:30;;;;;;;11.23;10.20;;;15.30;99.90;;;-141.84;60.88;20606.53;5032381;28;20205;-57
2023/05/15 06:46:58;;;;;;;11.10;10.10;;;15.50;99.90;;;-141.84;61.07;20635.00;5031556;28;20573;-56
2023/05/15 06:49:28;;;;;;;11.68;10.68;;;15.70;99.90;;;-141.84;60.67;20626.88;5040702;28;20225;-56
2023/05/15 06:51:57;;;;;;;13.65;12.35;;;15.80;99.90;;;-141.84;60.36;20683.78;5051250;28;20195;-55
2023/05/15 06:54:26;;;;;;;14.18;12.13;;;16.00;99.90;;;-141.84;60.01;20677.69;5051483;28;20201;-55
2023/05/15 06:56:54;;;;;;;11.98;10.85;;;15.90;99.90;;;-141.84;60.27;20702.09;5051463;28;20221;-57
2023/05/15 06:59:22;;;;;;;12.70;11.50;;;16.00;99.90;;;-141.84;60.00;20687.84;5051373;28;20521;-55
2023/05/15 07:01:50;;;;;;;12.07;10.93;;;16.10;99.90;;;-141.84;59.76;20732.56;5051394;28;20607;-55
2023/05/15 07:04:18;;;;;;;13.07;11.77;;;16.20;99.90;;;-141.84;59.56;20734.59;5046657;28;20264;-56
2023/05/15 07:06:48;;;;;;;14.13;11.60;;;16.40;99.90;;;-141.84;58.82;20754.94;5031306;28;20205;-58
2023/05/15 07:09:16;;;;;;;12.50;11.20;;;16.40;99.90;;;-141.84;59.05;20732.56;5031703;28;20201;-56
2023/05/15 07:11:44;;;;;;;13.60;11.85;;;16.50;99.90;;;-141.84;59.11;20769.16;5031547;28;20217;-57
2023/05/15 07:14:12;;;;;;;11.10;10.07;;;16.50;99.90;;;-141.84;59.17;20781.38;5031154;28;20198;-55
2023/05/15 07:16:40;;;;;;;12.95;11.80;;;16.60;99.90;;;-141.84;59.26;20698.00;5048093;28;20732;-55
2023/05/15 07:19:09;;;;;;;12.35;11.25;;;16.50;99.90;;;-141.84;59.25;20693.94;5043464;28;20201;-56
2023/05/15 07:21:39;;;;;;;12.10;10.90;;;16.40;99.90;;;-141.84;59.91;20732.56;5031120;28;20316;-56
2023/05/15 07:24:08;;;;;;;12.38;11.25;;;16.40;99.90;;;-141.84;59.81;20728.50;5043343;28;20201;-57
2023/05/15 07:26:36;;;;;;;15.05;11.50;;;16.40;99.90;;;-141.84;58.61;20769.16;5051211;28;20201;-57
2023/05/15 07:29:24;;;;;;;12.25;11.15;;;16.60;99.90;;;-141.84;57.59;20767.13;5051235;28;20289;-53
2023/05/15 07:31:52;;;;;;;11.77;10.75;;;16.60;99.90;;;-141.84;56.72;20773.22;5051050;28;20201;-56
2023/05/15 07:34:21;;;;;;;11.05;10.00;;;16.70;99.90;;;-141.84;54.99;20870.81;5041916;28;20263;-54
2023/05/15 07:36:49;;;;;;;11.32;9.73;;;16.80;99.90;;;-141.84;55.40;20830.16;5043348;28;20209;-53
2023/05/15 07:39:18;;;;;;;11.52;10.05;;;16.90;99.90;;;-141.84;54.65;20826.09;5042672;28;20209;-57
2023/05/15 07:41:47;;;;;;;11.15;10.15;;;16.90;99.90;;;-141.84;55.33;20860.66;5046692;28;20259;-53
2023/05/15 07:44:15;;;;;;;10.93;9.93;;;17.00;99.90;;;-141.84;55.79;20836.25;5044707;28;20213;-54
2023/05/15 07:46:44;;;;;;;11.25;10.25;;;17.10;99.90;;;-141.84;55.52;20856.56;5040552;28;20203;-54
2023/05/15 07:49:12;;;;;;;11.07;10.07;;;17.20;99.90;;;-141.84;55.59;20874.88;5037728;28;20225;-56
2023/05/15 07:51:41;;;;;;;11.13;10.07;;;17.20;99.90;;;-141.84;55.97;20923.66;5042583;28;20588;-54
2023/05/15 07:54:09;;;;;;;10.27;9.38;;;17.30;99.90;;;-141.84;56.01;20923.66;5047711;28;20194;-54
2023/05/15 07:56:40;;;;;;;9.88;9.07;;;17.40;99.90;;;-141.84;53.75;20956.19;5042128;28;20213;-54
2023/05/15 07:59:08;;;;;;;10.15;9.25;;;17.50;99.90;;;-141.84;53.96;20939.94;5037318;28;20248;-50
2023/05/15 08:01:36;;;;;;;9.00;8.20;;;17.50;99.90;;;-141.84;53.88;20948.06;5043890;28;20327;-53
2023/05/15 08:04:08;;;;;;;10.55;9.60;;;17.50;99.90;;;-141.84;54.22;20923.66;5044936;28;20193;-52
2023/05/15 08:06:37;;;;;;;10.63;8.63;;;17.50;99.90;;;-141.84;54.35;20948.06;5038348;28;20197;-51
2023/05/15 08:09:06;;;;;;;8.77;7.97;;;17.60;99.90;;;-141.84;54.09;20968.38;5038568;28;20194;-54
2023/05/15 08:11:34;;;;;;;10.45;9.55;;;17.70;99.90;;;-141.84;53.52;20992.78;5046695;28;20204;-54
2023/05/15 08:14:04;;;;;;;10.32;9.50;;;17.80;99.90;;;-141.84;53.79;21015.16;5048100;28;20216;-52
2023/05/15 08:16:32;;;;;;;9.77;8.77;;;17.80;99.90;;;-141.84;53.51;21013.13;5040112;28;20202;-53
2023/05/15 08:19:03;;;;;;;10.52;8.05;;;17.90;99.90;;;-141.84;53.27;21053.78;5045273;28;20271;-52
2023/05/15 08:21:31;;;;;;;9.20;8.25;;;18.10;99.90;;;-141.84;52.97;21055.81;5043237;28;20198;-54
2023/05/15 08:24:00;;;;;;;8.90;8.07;;;18.10;99.90;;;-141.84;52.11;21070.03;5047767;28;20205;-50
2023/05/15 08:26:28;;;;;;;7.65;6.97;;;18.20;99.90;;;-141.84;51.72;21094.44;5053087;28;20216;-52
2023/05/15 08:28:57;;;;;;;7.22;6.63;;;18.30;99.90;;;-141.84;50.81;21108.66;5047592;28;20197;-57
2023/05/15 08:31:26;;;;;;;6.65;5.90;;;18.40;99.90;;;-141.84;49.33;21153.41;5052755;28;20220;-55
2023/05/15 08:33:54;;;;;;;7.57;6.65;;;18.40;99.90;;;-141.84;49.26;21159.50;5040572;28;20205;-56
2023/05/15 08:36:22;;;;;;;6.82;5.82;;;18.50;99.90;;;-141.84;48.92;21163.56;5045235;28;20194;-56
2023/05/15 08:38:51;;;;;;;6.20;5.70;;;18.60;99.90;;;-141.84;47.45;21246.91;5051406;28;20225;-55
2023/05/15 08:41:31;;;;;;;5.97;5.47;;;18.60;99.90;;;-141.84;47.05;21194.06;5047837;28;20202;-57
2023/05/15 08:44:09;;;;;;;5.28;4.80;;;18.70;99.90;;;-141.84;45.83;21198.13;5052841;28;20559;-58
2023/05/15 08:46:40;;;;;;;5.13;4.72;;;18.60;99.90;;;-141.84;45.76;21190.00;5052846;28;20204;-58
2023/05/15 08:49:19;;;;;;;6.03;5.53;;;18.70;99.90;;;-141.84;47.23;21212.34;5038377;28;20238;-57
2023/05/15 08:51:48;;;;;;;5.60;5.10;;;18.80;99.90;;;-141.84;46.98;21220.47;5049906;28;20212;-56
2023/05/15 08:54:16;;;;;;;6.00;5.50;;;18.80;99.90;;;-141.84;47.12;21224.56;5044814;28;21149;-58
2023/05/15 08:56:45;;;;;;;7.82;6.38;;;18.90;99.90;;;-141.84;46.76;21269.28;5052631;28;20218;-59
2023/05/15 08:59:13;;;;;;;6.43;5.93;;;19.00;99.90;;;-141.84;46.98;21228.63;5052138;28;20597;-59
2023/05/15 09:01:43;;;;;;;7.65;6.32;;;19.00;99.90;;;-141.84;46.62;21253.00;5052354;28;20216;-57
2023/05/15 09:04:11;;;;;;;5.68;5.13;;;19.10;99.90;;;-141.84;45.09;21285.53;5051743;28;20206;-56
2023/05/15 09:06:43;;;;;;;5.97;5.18;;;19.10;99.90;;;-141.84;45.44;21309.94;5035795;28;20288;-57
2023/05/15 09:09:12;;;;;;;4.72;4.32;;;19.10;99.90;;;-141.84;45.38;21273.34;5049733;28;20209;-57
2023/05/15 09:11:44;;;;;;;5.50;5.10;;;19.10;99.90;;;-141.84;45.49;21314.00;5038275;28;20347;-58
2023/05/15 09:14:12;;;;;;;6.60;5.43;;;19.20;99.90;;;-141.84;44.40;21375.00;5046447;28;20658;-58
2023/05/15 09:16:42;;;;;;;6.85;6.25;;;19.30;99.90;;;-141.84;45.41;21338.41;5038198;28;20209;-58
2023/05/15 09:19:12;;;;;;;6.50;5.82;;;19.30;99.90;;;-141.84;45.13;21348.56;5042754;28;20692;-58
2023/05/15 09:21:40;;;;;;;6.80;5.50;;;19.30;99.90;;;-141.84;44.14;21336.38;5052390;28;20237;-57
2023/05/15 09:24:22;;;;;;;7.13;6.40;;;19.30;99.90;;;-141.84;44.05;21366.88;5051833;28;20208;-56
2023/05/15 09:27:03;;;;;;;6.30;5.70;;;19.40;99.90;;;-141.84;44.43;21342.47;5034597;28;20202;-57
2023/05/15 09:29:33;;;;;;;6.80;6.20;;;19.30;99.90;;;-141.84;44.82;21332.31;5032440;28;20228;-54
2023/05/15 09:32:07;;;;;;;7.28;6.60;;;19.30;99.90;;;-141.84;44.90;21391.28;5040939;28;20209;-57
2023/05/15 09:34:38;;;;;;;6.95;6.30;;;19.50;99.90;;;-141.84;44.16;21442.09;5046610;28;20669;-57
2023/05/15 09:37:09;;;;;;;6.93;6.28;;;19.60;99.90;;;-141.84;44.01;21472.59;5037376;28;20586;-55
2023/05/15 09:39:42;;;;;;;6.30;5.70;;;19.70;99.90;;;-141.84;43.04;21415.66;5037978;28;20252;-57
2023/05/15 09:42:12;;;;;;;5.75;5.20;;;19.70;99.90;;;-141.84;43.11;21431.94;5045924;28;20555;-56
2023/05/15 09:44:42;;;;;;;5.13;4.72;;;19.70;99.90;;;-141.84;42.55;21466.50;5043592;28;20190;-58
2023/05/15 09:47:15;;;;;;;4.80;4.35;;;19.70;99.90;;;-141.84;41.41;21511.22;5042745;28;20205;-57
2023/05/15 09:49:45;;;;;;;5.28;4.78;;;19.80;99.90;;;-141.84;41.75;21525.47;5037019;28;20225;-58
2023/05/15 09:52:16;;;;;;;7.13;5.53;;;20.10;99.90;;;-141.84;41.89;21600.69;5037523;28;20198;-58
2023/05/15 09:54:46;;;;;;;5.97;5.38;;;20.20;99.90;;;-141.84;41.17;21570.19;5036209;28;20200;-57
2023/05/15 09:57:22;;;;;;;5.22;4.75;;;20.20;99.90;;;-141.84;40.96;21488.88;5046696;28;20193;-54
2023/05/15 09:59:50;;;;;;;7.05;5.28;;;20.10;99.90;;;-141.84;41.24;21521.41;5042554;28;20308;-58
2023/05/15 10:02:26;;;;;;;6.53;5.60;;;20.00;99.90;;;-141.84;42.06;21564.09;5037010;28;20296;-53
2023/05/15 10:04:56;;;;;;;7.10;5.85;;;20.10;99.90;;;-141.84;41.67;21525.47;5040531;28;20193;-58
2023/05/15 10:07:32;;;;;;;5.38;4.88;;;20.20;99.90;;;-141.84;40.13;21533.59;5043174;28;20259;-58
2023/05/15 10:10:02;;;;;;;6.13;5.45;;;20.20;99.90;;;-141.84;41.18;21551.91;5035220;28;20255;-58